Time;durP1;ratioP1;P1;durP2;ratioP2;P2;SDS_P1;SDS_P2;PMS_P1;PMS_P2;Temp;Humidity;BMP_temperature;BMP_pressure;BME280_temperature;BME280_humidity;BME280_pressure;Samples;Min_cycle;Max_cycle;Signal;HPM_P1;HPM_P2
2022/10/22 00:01:11;;;;;;;;;;;13.40;99.90;;;;;;5019479;28;19995;-73
2022/10/22 00:03:37;;;;;;;;;;;13.30;99.90;;;;;;5014019;28;19963;-73
2022/10/22 00:06:02;;;;;;;;;;;13.40;99.90;;;;;;5013201;28;20018;-73
2022/10/22 00:08:28;;;;;;;;;;;13.30;99.90;;;;;;4996510;28;20011;-73
2022/10/22 00:10:53;;;;;;;;;;;13.20;99.90;;;;;;4995737;28;20375;-73
2022/10/22 00:13:19;;;;;;;;;;;13.20;99.90;;;;;;4996288;28;20331;-73
2022/10/22 00:15:45;;;;;;;;;;;13.10;99.90;;;;;;5006606;28;19917;-73
2022/10/22 00:18:10;;;;;;;;;;;13.30;99.90;;;;;;5014205;28;19994;-73
2022/10/22 00:20:36;;;;;;;;;;;13.10;99.90;;;;;;5015538;28;19983;-73
2022/10/22 00:23:01;;;;;;;;;;;13.30;99.90;;;;;;4999281;28;19921;-73
2022/10/22 00:25:27;;;;;;;;;;;13.10;99.90;;;;;;5015062;28;19916;-73
2022/10/22 00:27:52;;;;;;;;;;;13.00;99.90;;;;;;5033470;28;19917;-73
2022/10/22 00:30:18;;;;;;;;;;;13.00;99.90;;;;;;5032381;28;19924;-73
2022/10/22 00:32:44;;;;;;;;;;;13.10;99.90;;;;;;5033182;28;19939;-73
2022/10/22 00:35:10;;;;;;;;;;;;;;;;;;5030140;28;19924;-73
2022/10/22 00:37:35;;;;;;;;;;;12.90;99.90;;;;;;5033031;28;19917;-73
2022/10/22 00:40:01;;;;;;;;;;;12.80;99.90;;;;;;5015327;28;19921;-73
2022/10/22 00:42:29;;;;;;;;;;;12.90;99.90;;;;;;5015256;28;19924;-73
2022/10/22 00:45:03;;;;;;;;;;;12.90;99.90;;;;;;4998121;28;19917;-73
2022/10/22 00:47:31;;;;;;;;;;;12.60;99.90;;;;;;5015214;28;20068;-73
2022/10/22 00:49:57;;;;;;;;;;;13.10;99.90;;;;;;5021820;28;20362;-73
2022/10/22 00:52:23;;;;;;;;;;;12.60;99.90;;;;;;4995694;28;20303;-73
2022/10/22 00:54:49;;;;;;;;;;;12.60;99.90;;;;;;4994949;28;19917;-73
2022/10/22 00:57:15;;;;;;;;;;;12.70;99.90;;;;;;4995465;28;19917;-73
2022/10/22 00:59:41;;;;;;;;;;;12.80;99.90;;;;;;4995381;28;19928;-73
2022/10/22 01:02:06;;;;;;;;;;;12.90;99.90;;;;;;4995258;28;20007;-73
2022/10/22 01:04:32;;;;;;;;;;;;;;;;;;5010130;28;19917;-72
2022/10/22 01:06:58;;;;;;;;;;;13.10;99.90;;;;;;5015252;28;20401;-73
2022/10/22 01:09:32;;;;;;;;;;;12.90;99.90;;;;;;5005680;28;19917;-73
2022/10/22 01:12:06;;;;;;;;;;;12.80;99.90;;;;;;5012843;28;20003;-73
2022/10/22 01:14:43;;;;;;;;;;;12.90;99.90;;;;;;5011848;28;19918;-73
2022/10/22 01:17:17;;;;;;;;;;;13.00;99.90;;;;;;4994855;28;20379;-73
2022/10/22 01:20:01;;;;;;;;;;;13.00;99.90;;;;;;5020853;28;19917;-73
2022/10/22 01:22:36;;;;;;;;;;;12.70;99.90;;;;;;5013921;28;19921;-73
2022/10/22 01:25:16;;;;;;;;;;;12.70;99.90;;;;;;5013378;28;19924;-73
2022/10/22 01:27:48;;;;;;;;;;;13.00;99.90;;;;;;5014697;28;19916;-72
2022/10/22 01:30:14;;;;;;;;;;;;;;;;;;5013945;28;20368;-73
2022/10/22 01:32:43;;;;;;;;;;;12.60;99.90;;;;;;5014786;28;19920;-73
2022/10/22 01:35:10;;;;;;;;;;;12.80;99.90;;;;;;5011942;28;19960;-73
2022/10/22 01:37:39;;;;;;;;;;;12.70;99.90;;;;;;5014445;28;19999;-72
2022/10/22 01:40:06;;;;;;;;;;;13.00;99.90;;;;;;5014686;28;20299;-72
2022/10/22 01:42:31;;;;;;;;;;;13.10;99.90;;;;;;5013844;28;19921;-73
2022/10/22 01:44:57;;;;;;;;;;;13.10;99.90;;;;;;4994136;28;19947;-73
2022/10/22 01:47:23;;;;;;;;;;;;;;;;;;4994775;28;20438;-73
2022/10/22 01:49:56;;;;;;;;;;;13.10;99.90;;;;;;5009932;28;20461;-73
2022/10/22 01:52:41;;;;;;;;;;;13.20;99.90;;;;;;4997895;28;19917;-73
2022/10/22 01:55:06;;;;;;;;;;;13.10;99.90;;;;;;5013572;28;20001;-73
2022/10/22 01:57:37;;;;;;;;;;;13.00;99.90;;;;;;5014599;28;19987;-72
2022/10/22 02:00:08;;;;;;;;;;;13.30;99.90;;;;;;5014156;28;20386;-73
2022/10/22 02:02:34;;;;;;;;;;;;;;;;;;5014229;28;20390;-73
2022/10/22 02:05:04;;;;;;;;;;;13.20;99.90;;;;;;5029530;28;19963;-73
2022/10/22 02:07:31;;;;;;;;;;;13.20;99.90;;;;;;5014249;28;19917;-73
2022/10/22 02:09:58;;;;;;;;;;;12.90;99.90;;;;;;5014157;28;19932;-73
2022/10/22 02:12:25;;;;;;;;;;;13.20;99.90;;;;;;5031630;28;20385;-73
2022/10/22 02:14:51;;;;;;;;;;;13.30;99.90;;;;;;5013353;28;19928;-73
2022/10/22 02:17:18;;;;;;;;;;;12.90;99.90;;;;;;5091924;22;19963;-71
2022/10/22 02:19:51;;;;;;;;;;;13.00;99.90;;;;;;5074258;28;19923;-72
2022/10/22 02:22:17;;;;;;;;;;;13.40;99.90;;;;;;5060315;28;19982;-72
2022/10/22 02:24:43;;;;;;;;;;;13.20;99.90;;;;;;5052973;28;20305;-72
2022/10/22 02:27:24;;;;;;;;;;;13.20;99.90;;;;;;5042443;28;19939;-72
2022/10/22 02:30:00;;;;;;;;;;;13.30;99.90;;;;;;5051837;28;19920;-72
2022/10/22 02:32:29;;;;;;;;;;;13.00;99.90;;;;;;5033749;28;19916;-72
2022/10/22 02:34:55;;;;;;;;;;;13.20;99.90;;;;;;5054347;28;20410;-71
2022/10/22 02:37:22;;;;;;;;;;;13.30;99.90;;;;;;5027293;28;19954;-72
2022/10/22 02:39:47;;;;;;;;;;;12.90;99.90;;;;;;5065185;28;19916;-72
2022/10/22 02:42:13;;;;;;;;;;;13.10;99.90;;;;;;5055514;28;19927;-73
2022/10/22 02:44:39;;;;;;;;;;;13.00;99.90;;;;;;5036789;28;19923;-72
2022/10/22 02:47:04;;;;;;;;;;;13.40;99.90;;;;;;5037437;28;19917;-72
2022/10/22 02:49:30;;;;;;;;;;;13.90;99.90;;;;;;5020837;28;20293;-70
2022/10/22 02:51:56;;;;;;;;;;;13.30;99.90;;;;;;5055277;28;19923;-71
2022/10/22 02:54:21;;;;;;;;;;;12.90;99.90;;;;;;5067332;28;19917;-73
2022/10/22 02:56:47;;;;;;;;;;;12.90;99.90;;;;;;5057325;28;20275;-73
2022/10/22 02:59:12;;;;;;;;;;;14.30;99.90;;;;;;5075043;28;19916;-73
2022/10/22 03:01:38;;;;;;;;;;;12.90;99.90;;;;;;5057008;28;19927;-73
2022/10/22 03:04:03;;;;;;;;;;;14.20;99.90;;;;;;5056352;28;20404;-73
2022/10/22 03:06:29;;;;;;;;;;;13.00;99.90;;;;;;5056878;28;19920;-73
2022/10/22 03:08:54;;;;;;;;;;;13.10;99.90;;;;;;5074802;28;20385;-71
2022/10/22 03:11:20;;;;;;;;;;;14.00;99.90;;;;;;5055307;28;20382;-71
2022/10/22 03:13:45;;;;;;;;;;;12.90;99.90;;;;;;5056796;28;19916;-71
2022/10/22 03:16:11;;;;;;;;;;;13.00;99.90;;;;;;5056100;28;19923;-70
2022/10/22 03:18:36;;;;;;;;;;;13.20;99.90;;;;;;5056667;28;19916;-71
2022/10/22 03:21:25;;;;;;;;;;;13.00;99.90;;;;;;5074599;28;20401;-70
2022/10/22 03:23:50;;;;;;;;;;;12.90;99.90;;;;;;5045395;28;20008;-70
2022/10/22 03:26:16;;;;;;;;;;;12.70;99.90;;;;;;5055472;28;19987;-71
2022/10/22 03:28:42;;;;;;;;;;;13.20;99.90;;;;;;5038019;28;19917;-71
2022/10/22 03:31:08;;;;;;;;;;;13.60;99.90;;;;;;5056145;28;19920;-71
2022/10/22 03:33:33;;;;;;;;;;;13.30;99.90;;;;;;5056677;28;20393;-71
2022/10/22 03:35:59;;;;;;;;;;;12.90;99.90;;;;;;5055465;28;19923;-71
2022/10/22 03:38:25;;;;;;;;;;;13.20;99.90;;;;;;5039763;28;19977;-71
2022/10/22 03:40:50;;;;;;;;;;;13.40;99.90;;;;;;5056417;28;19928;-71
2022/10/22 03:43:16;;;;;;;;;;;13.20;99.90;;;;;;5054556;28;19925;-71
2022/10/22 03:45:41;;;;;;;;;;;12.80;99.90;;;;;;5054705;28;20301;-70
2022/10/22 03:48:07;;;;;;;;;;;13.00;99.90;;;;;;5056005;28;19922;-71
2022/10/22 03:50:32;;;;;;;;;;;12.90;99.90;;;;;;5056140;28;19966;-73
2022/10/22 03:52:58;;;;;;;;;;;12.90;99.90;;;;;;5055789;28;19970;-73
2022/10/22 03:55:24;;;;;;;;;;;12.90;99.90;;;;;;5073305;28;19917;-71
2022/10/22 03:57:49;;;;;;;;;;;12.80;99.90;;;;;;5055882;28;19923;-71
2022/10/22 04:00:15;;;;;;;;;;;12.90;99.90;;;;;;5071994;28;19916;-71
2022/10/22 04:02:40;;;;;;;;;;;12.70;99.90;;;;;;5055536;28;19939;-71
2022/10/22 04:05:06;;;;;;;;;;;13.10;99.90;;;;;;5055019;28;19959;-70
2022/10/22 04:07:32;;;;;;;;;;;12.90;99.90;;;;;;5055600;28;20011;-71
2022/10/22 04:09:57;;;;;;;;;;;12.80;99.90;;;;;;5055966;28;19923;-71
2022/10/22 04:12:22;;;;;;;;;;;12.90;99.90;;;;;;5056909;28;19959;-71
2022/10/22 04:14:48;;;;;;;;;;;12.90;99.90;;;;;;5073636;28;19923;-71
2022/10/22 04:17:14;;;;;;;;;;;12.70;99.90;;;;;;5061082;28;20297;-71
2022/10/22 04:19:39;;;;;;;;;;;12.90;99.90;;;;;;5065754;28;19963;-70
2022/10/22 04:22:05;;;;;;;;;;;12.80;99.90;;;;;;5041302;28;20385;-70
2022/10/22 04:24:30;;;;;;;;;;;12.70;99.90;;;;;;5038682;28;19921;-71
2022/10/22 04:26:56;;;;;;;;;;;12.90;99.90;;;;;;5035661;28;19970;-71
2022/10/22 04:29:22;;;;;;;;;;;14.10;99.90;;;;;;5036401;28;19958;-71
2022/10/22 04:31:47;;;;;;;;;;;12.70;99.90;;;;;;5035465;28;19939;-71
2022/10/22 04:34:13;;;;;;;;;;;12.80;99.90;;;;;;5035573;28;19971;-71
2022/10/22 04:36:38;;;;;;;;;;;12.90;99.90;;;;;;5034986;28;19920;-70
2022/10/22 04:39:04;;;;;;;;;;;12.90;99.90;;;;;;5035391;28;19916;-70
2022/10/22 04:41:31;;;;;;;;;;;12.90;99.90;;;;;;5053053;28;19975;-70
2022/10/22 04:43:57;;;;;;;;;;;12.50;99.90;;;;;;5033362;28;20006;-70
2022/10/22 04:46:23;;;;;;;;;;;12.80;99.90;;;;;;5055204;28;20341;-71
2022/10/22 04:48:50;;;;;;;;;;;12.60;99.90;;;;;;5072917;28;20404;-71
2022/10/22 04:51:17;;;;;;;;;;;13.40;99.90;;;;;;5036810;28;19916;-71
2022/10/22 04:53:45;;;;;;;;;;;12.90;99.90;;;;;;5055109;28;19916;-71
2022/10/22 04:56:10;;;;;;;;;;;12.70;99.90;;;;;;5054506;28;20492;-71
2022/10/22 04:58:36;;;;;;;;;;;12.70;99.90;;;;;;5054685;28;20037;-70
2022/10/22 05:01:12;;;;;;;;;;;14.40;99.90;;;;;;5054938;28;20292;-71
2022/10/22 05:03:37;;;;;;;;;;;12.90;99.90;;;;;;5038379;28;20391;-71
2022/10/22 05:06:03;;;;;;;;;;;12.90;99.90;;;;;;5052450;28;20038;-71
2022/10/22 05:08:28;;;;;;;;;;;12.80;99.90;;;;;;5054686;28;19956;-71
2022/10/22 05:10:54;;;;;;;;;;;12.90;99.90;;;;;;5054842;28;19924;-71
2022/10/22 05:13:19;;;;;;;;;;;12.50;99.90;;;;;;5054591;28;20014;-71
2022/10/22 05:15:45;;;;;;;;;;;12.80;99.90;;;;;;5037100;28;19916;-71
2022/10/22 05:18:10;;;;;;;;;;;12.60;99.90;;;;;;5054911;28;20293;-71
2022/10/22 05:20:38;;;;;;;;;;;13.90;99.90;;;;;;5055194;28;19975;-70
2022/10/22 05:23:04;;;;;;;;;;;13.00;99.90;;;;;;5035912;28;19916;-70
2022/10/22 05:25:29;;;;;;;;;;;13.00;99.90;;;;;;5051277;28;19921;-71
2022/10/22 05:27:55;;;;;;;;;;;13.00;99.90;;;;;;5034741;28;20370;-71
2022/10/22 05:30:20;;;;;;;;;;;14.30;99.90;;;;;;5034567;28;19924;-71
2022/10/22 05:32:46;;;;;;;;;;;13.00;99.90;;;;;;5052227;28;19987;-71
2022/10/22 05:35:11;;;;;;;;;;;12.80;99.90;;;;;;5051557;28;19938;-71
2022/10/22 05:37:37;;;;;;;;;;;12.90;99.90;;;;;;5034295;28;19916;-71
2022/10/22 05:40:03;;;;;;;;;;;12.80;99.90;;;;;;5035464;28;19917;-71
2022/10/22 05:42:31;;;;;;;;;;;12.90;99.90;;;;;;5052037;28;19925;-71
2022/10/22 05:44:57;;;;;;;;;;;13.00;99.90;;;;;;5033409;28;19917;-70
2022/10/22 05:47:22;;;;;;;;;;;12.80;99.90;;;;;;5034372;28;20293;-70
2022/10/22 05:49:48;;;;;;;;;;;13.90;99.90;;;;;;5034136;28;19924;-70
2022/10/22 05:52:13;;;;;;;;;;;13.00;99.90;;;;;;5034324;28;20267;-71
2022/10/22 05:54:39;;;;;;;;;;;12.80;99.90;;;;;;5033275;28;20007;-70
2022/10/22 05:57:04;;;;;;;;;;;12.90;99.90;;;;;;5035216;28;20452;-71
2022/10/22 05:59:30;;;;;;;;;;;13.10;99.90;;;;;;5034202;28;19946;-71
2022/10/22 06:01:55;;;;;;;;;;;13.90;99.90;;;;;;5052080;28;19921;-71
2022/10/22 06:04:21;;;;;;;;;;;13.00;99.90;;;;;;5051184;28;19917;-70
2022/10/22 06:06:48;;;;;;;;;;;13.20;99.90;;;;;;5034027;28;19916;-70
2022/10/22 06:09:17;;;;;;;;;;;14.70;99.90;;;;;;5036499;28;20382;-71
2022/10/22 06:11:43;;;;;;;;;;;12.90;99.90;;;;;;5039061;28;20548;-71
2022/10/22 06:14:09;;;;;;;;;;;12.90;99.90;;;;;;5021151;28;20370;-71
2022/10/22 06:16:35;;;;;;;;;;;13.00;99.90;;;;;;5037472;28;19967;-71
2022/10/22 06:19:01;;;;;;;;;;;14.40;99.90;;;;;;5055917;28;19973;-71
2022/10/22 06:21:27;;;;;;;;;;;12.90;99.90;;;;;;5055603;28;20050;-71
2022/10/22 06:23:54;;;;;;;;;;;13.00;99.90;;;;;;5037041;28;19924;-71
2022/10/22 06:26:20;;;;;;;;;;;12.90;99.90;;;;;;5066443;28;19916;-71
2022/10/22 06:28:45;;;;;;;;;;;13.20;99.90;;;;;;5066709;28;20577;-71
2022/10/22 06:31:11;;;;;;;;;;;12.90;99.90;;;;;;5048538;28;19924;-71
2022/10/22 06:33:41;;;;;;;;;;;14.30;99.90;;;;;;5046434;28;19923;-71
2022/10/22 06:36:10;;;;;;;;;;;13.00;99.90;;;;;;5045607;28;19924;-71
2022/10/22 06:38:35;;;;;;;;;;;13.20;99.90;;;;;;5045979;28;19917;-71
2022/10/22 06:41:06;;;;;;;;;;;12.90;99.90;;;;;;5045833;28;19920;-71
2022/10/22 06:43:31;;;;;;;;;;;13.30;99.90;;;;;;5071384;28;19917;-72
2022/10/22 06:45:58;;;;;;;;;;;13.50;99.90;;;;;;5069545;28;19924;-72
2022/10/22 06:48:23;;;;;;;;;;;14.60;99.90;;;;;;5071056;28;19924;-72
2022/10/22 06:50:49;;;;;;;;;;;13.40;99.90;;;;;;5038087;28;19916;-72
2022/10/22 06:53:14;;;;;;;;;;;12.90;99.90;;;;;;5048406;28;19923;-72
2022/10/22 06:55:40;;;;;;;;;;;14.70;99.90;;;;;;5047881;28;19927;-72
2022/10/22 06:58:05;;;;;;;;;;;13.30;99.90;;;;;;5047056;28;19917;-72
2022/10/22 07:00:31;;;;;;;;;;;13.50;99.90;;;;;;5047117;28;20006;-72
2022/10/22 07:02:56;;;;;;;;;;;13.50;99.90;;;;;;5046311;28;19923;-72
2022/10/22 07:05:22;;;;;;;;;;;14.50;99.90;;;;;;5074156;28;19922;-72
2022/10/22 07:07:47;;;;;;;;;;;13.40;99.90;;;;;;5068621;28;20340;-72
2022/10/22 07:10:13;;;;;;;;;;;13.20;99.90;;;;;;5064502;28;19916;-72
2022/10/22 07:12:38;;;;;;;;;;;13.50;99.90;;;;;;5061742;28;19974;-72
2022/10/22 07:15:04;;;;;;;;;;;13.60;99.90;;;;;;5044097;28;20056;-72
2022/10/22 07:17:30;;;;;;;;;;;13.40;99.90;;;;;;5028288;28;20661;-71
2022/10/22 07:19:55;;;;;;;;;;;13.30;99.90;;;;;;5045995;28;19967;-72
2022/10/22 07:22:21;;;;;;;;;;;13.50;99.90;;;;;;5043911;28;19928;-72
2022/10/22 07:24:46;;;;;;;;;;;13.60;99.90;;;;;;5045422;28;19959;-72
2022/10/22 07:27:12;;;;;;;;;;;13.40;99.90;;;;;;5027476;28;19916;-72
2022/10/22 07:29:37;;;;;;;;;;;13.80;99.90;;;;;;5041081;28;19927;-71
2022/10/22 07:32:03;;;;;;;;;;;13.40;99.90;;;;;;5074623;28;20011;-71
2022/10/22 07:34:28;;;;;;;;;;;13.70;99.90;;;;;;5056137;28;19916;-71
2022/10/22 07:36:55;;;;;;;;;;;13.50;99.90;;;;;;5056481;28;19960;-72
2022/10/22 07:39:21;;;;;;;;;;;13.20;99.90;;;;;;5060171;28;20399;-71
2022/10/22 07:41:47;;;;;;;;;;;13.20;99.90;;;;;;5054269;28;20016;-71
2022/10/22 07:44:12;;;;;;;;;;;13.40;99.90;;;;;;5037047;28;19943;-71
2022/10/22 07:46:38;;;;;;;;;;;13.30;99.90;;;;;;5036226;28;20007;-71
2022/10/22 07:49:03;;;;;;;;;;;13.90;99.90;;;;;;5036408;28;20294;-71
2022/10/22 07:51:29;;;;;;;;;;;13.70;99.90;;;;;;5039583;28;19921;-71
2022/10/22 07:53:54;;;;;;;;;;;13.60;99.90;;;;;;5045508;28;19916;-72
2022/10/22 07:56:20;;;;;;;;;;;13.90;99.90;;;;;;5051929;28;19920;-72
2022/10/22 07:58:45;;;;;;;;;;;13.90;99.90;;;;;;5049428;28;20390;-71
2022/10/22 08:01:11;;;;;;;;;;;15.40;99.90;;;;;;5039637;28;19921;-71
2022/10/22 08:03:36;;;;;;;;;;;14.30;99.90;;;;;;5022771;28;20007;-73
2022/10/22 08:06:02;;;;;;;;;;;14.20;99.90;;;;;;5040621;28;19973;-72
2022/10/22 08:08:28;;;;;;;;;;;13.90;99.90;;;;;;5038778;28;20446;-72
2022/10/22 08:10:55;;;;;;;;;;;14.10;99.90;;;;;;5037085;28;19916;-71
2022/10/22 08:13:22;;;;;;;;;;;14.30;99.90;;;;;;5039281;28;19928;-72
2022/10/22 08:15:47;;;;;;;;;;;14.20;99.90;;;;;;5041273;28;19927;-72
2022/10/22 08:18:13;;;;;;;;;;;14.30;99.90;;;;;;5038657;28;19927;-72
2022/10/22 08:20:39;;;;;;;;;;;15.40;99.90;;;;;;5045884;28;19965;-72
2022/10/22 08:23:05;;;;;;;;;;;14.70;99.90;;;;;;5042722;28;20058;-72
2022/10/22 08:25:31;;;;;;;;;;;14.60;99.90;;;;;;5045120;28;20364;-71
2022/10/22 08:27:56;;;;;;;;;;;14.60;99.90;;;;;;5047046;28;20389;-71
2022/10/22 08:30:22;;;;;;;;;;;14.70;99.90;;;;;;5053005;28;19952;-71
2022/10/22 08:32:47;;;;;;;;;;;14.70;99.90;;;;;;5052919;28;20003;-71
2022/10/22 08:35:13;;;;;;;;;;;14.70;99.90;;;;;;5046527;28;19970;-72
2022/10/22 08:37:38;;;;;;;;;;;14.80;99.90;;;;;;5045605;28;19925;-72
2022/10/22 08:40:04;;;;;;;;;;;14.60;99.90;;;;;;5029219;28;19920;-72
2022/10/22 08:42:39;;;;;;;;;;;14.90;99.90;;;;;;5046610;28;20326;-72
2022/10/22 08:45:12;;;;;;;;;;;14.90;99.90;;;;;;5043875;28;19916;-73
2022/10/22 08:47:48;;;;;;;;;;;14.90;99.90;;;;;;5036727;28;20438;-72
2022/10/22 08:50:16;;;;;;;;;;;14.90;99.90;;;;;;5047184;28;19967;-73
2022/10/22 08:52:43;;;;;;;;;;;15.30;99.90;;;;;;5045694;28;20003;-71
2022/10/22 08:55:13;;;;;;;;;;;15.10;99.90;;;;;;5031095;28;19920;-72
2022/10/22 08:57:49;;;;;;;;;;;15.10;99.90;;;;;;5049663;28;19923;-72
2022/10/22 09:00:18;;;;;;;;;;;14.90;99.90;;;;;;5050304;28;19920;-72
2022/10/22 09:02:43;;;;;;;;;;;15.30;99.90;;;;;;5018360;28;19920;-74
2022/10/22 09:05:15;;;;;;;;;;;15.50;99.90;;;;;;5052084;28;20500;-73
2022/10/22 09:07:42;;;;;;;;;;;15.30;99.90;;;;;;5046634;28;20385;-72
2022/10/22 09:10:08;;;;;;;;;;;15.60;99.90;;;;;;5072926;28;20380;-73
2022/10/22 09:12:33;;;;;;;;;;;15.10;99.90;;;;;;5053259;28;19916;-73
2022/10/22 09:14:59;;;;;;;;;;;15.60;99.90;;;;;;5034022;28;19927;-72
2022/10/22 09:17:32;;;;;;;;;;;16.40;99.90;;;;;;5024612;28;19959;-72
2022/10/22 09:20:07;;;;;;;;;;;15.10;99.90;;;;;;5054440;28;19923;-73
2022/10/22 09:22:44;;;;;;;;;;;15.10;99.90;;;;;;5054560;28;19928;-72
2022/10/22 09:25:18;;;;;;;;;;;15.60;99.90;;;;;;5051784;28;19923;-72
2022/10/22 09:27:44;;;;;;;;;;;15.30;99.90;;;;;;5037867;28;19916;-73
2022/10/22 09:30:20;;;;;;;;;;;16.00;99.90;;;;;;5055483;28;19928;-73
2022/10/22 09:32:49;;;;;;;;;;;15.40;99.90;;;;;;5034745;28;19981;-73
2022/10/22 09:35:20;;;;;;;;;;;15.40;99.90;;;;;;5051660;28;19963;-72
2022/10/22 09:37:47;;;;;;;;;;;16.90;99.90;;;;;;5072011;28;19923;-73
2022/10/22 09:40:13;;;;;;;;;;;15.60;99.90;;;;;;5055914;28;19975;-72
2022/10/22 09:42:39;;;;;;;;;;;15.60;99.90;;;;;;5054529;28;19920;-73
2022/10/22 09:45:05;;;;;;;;;;;17.20;99.90;;;;;;5054342;28;19917;-73
2022/10/22 09:47:31;;;;;;;;;;;15.80;99.90;;;;;;5054217;28;19927;-73
2022/10/22 09:50:15;;;;;;;;;;;16.00;99.90;;;;;;5061698;28;19920;-73
2022/10/22 09:52:40;;;;;;;;;;;16.20;99.90;;;;;;5062702;28;20007;-73
2022/10/22 09:55:16;;;;;;;;;;;15.80;99.90;;;;;;5060718;28;20015;-73
2022/10/22 09:57:42;;;;;;;;;;;15.80;99.90;;;;;;5064596;28;20283;-73
2022/10/22 10:00:09;;;;;;;;;;;15.90;99.90;;;;;;5071192;28;19939;-73
2022/10/22 10:02:38;;;;;;;;;;;15.80;99.90;;;;;;5039375;28;19952;-73
2022/10/22 10:05:04;;;;;;;;;;;15.70;99.90;;;;;;5071565;28;19916;-73
2022/10/22 10:07:31;;;;;;;;;;;15.90;99.90;;;;;;5061723;28;19916;-73
2022/10/22 10:09:56;;;;;;;;;;;16.00;99.90;;;;;;5054396;28;20332;-73
2022/10/22 10:12:22;;;;;;;;;;;16.30;99.90;;;;;;5061744;28;19923;-73
2022/10/22 10:15:06;;;;;;;;;;;16.90;99.90;;;;;;5047411;28;19924;-73
2022/10/22 10:17:47;;;;;;;;;;;15.90;99.90;;;;;;5036927;28;19966;-73
2022/10/22 10:20:21;;;;;;;;;;;15.80;99.90;;;;;;5052183;28;20401;-73
2022/10/22 10:22:55;;;;;;;;;;;18.00;99.90;;;;;;5033667;28;19920;-73
2022/10/22 10:25:33;;;;;;;;;;;15.60;99.90;;;;;;5055614;28;20011;-73
2022/10/22 10:28:04;;;;;;;;;;;15.70;99.90;;;;;;5036833;28;19916;-73
2022/10/22 10:30:31;;;;;;;;;;;15.60;99.90;;;;;;5065212;28;19983;-73
2022/10/22 10:33:06;;;;;;;;;;;15.80;99.90;;;;;;5049243;28;20453;-73
2022/10/22 10:35:46;;;;;;;;;;;15.70;99.90;;;;;;5052769;28;20349;-73
2022/10/22 10:38:18;;;;;;;;;;;15.60;99.90;;;;;;5050861;28;19917;-73
2022/10/22 10:40:46;;;;;;;;;;;15.80;99.90;;;;;;5033857;28;20314;-73
2022/10/22 10:43:29;;;;;;;;;;;17.00;99.90;;;;;;5041581;28;20336;-73
2022/10/22 10:46:00;;;;;;;;;;;15.60;99.90;;;;;;5032835;28;20302;-73
2022/10/22 10:48:26;;;;;;;;;;;15.10;99.90;;;;;;5070323;28;19916;-73
2022/10/22 10:51:03;;;;;;;;;;;15.50;99.90;;;;;;5052386;28;20366;-73
2022/10/22 10:53:35;;;;;;;;;;;15.60;99.90;;;;;;5043391;28;19963;-73
2022/10/22 10:56:03;;;;;;;;;;;15.70;99.90;;;;;;5040854;28;19970;-73
2022/10/22 10:58:33;;;;;;;;;;;15.90;99.90;;;;;;5042986;28;19916;-73
2022/10/22 11:01:08;;;;;;;;;;;15.70;99.90;;;;;;5040156;28;19929;-73
2022/10/22 11:03:36;;;;;;;;;;;15.90;99.90;;;;;;5047087;28;19917;-73
2022/10/22 11:06:06;;;;;;;;;;;15.80;99.90;;;;;;5051265;28;19991;-72
2022/10/22 11:08:44;;;;;;;;;;;16.10;99.90;;;;;;5048222;28;19928;-73
2022/10/22 11:11:17;;;;;;;;;;;15.80;99.90;;;;;;5047597;28;19928;-73
2022/10/22 11:13:56;;;;;;;;;;;16.00;99.90;;;;;;5041344;28;20390;-73
2022/10/22 11:16:35;;;;;;;;;;;15.60;99.90;;;;;;5045134;28;19924;-72
2022/10/22 11:19:04;;;;;;;;;;;16.00;99.90;;;;;;5043829;28;19977;-73
2022/10/22 11:21:49;;;;;;;;;;;15.70;99.90;;;;;;5029431;28;19931;-72
2022/10/22 11:24:14;;;;;;;;;;;15.40;99.90;;;;;;5043900;28;19949;-72
2022/10/22 11:26:45;;;;;;;;;;;15.80;99.90;;;;;;5041855;28;20053;-73
2022/10/22 11:29:12;;;;;;;;;;;15.60;99.90;;;;;;5061724;28;19943;-72
2022/10/22 11:31:38;;;;;;;;;;;15.70;99.90;;;;;;5036421;28;20343;-72
2022/10/22 11:34:23;;;;;;;;;;;15.50;99.90;;;;;;5058407;28;20011;-73
2022/10/22 11:36:49;;;;;;;;;;;15.70;99.90;;;;;;5062921;28;20306;-70
2022/10/22 11:39:33;;;;;;;;;;;16.20;99.90;;;;;;5059457;28;19920;-72
2022/10/22 11:42:00;;;;;;;;;;;15.60;99.90;;;;;;5050971;28;19921;-72
2022/10/22 11:44:28;;;;;;;;;;;17.20;99.90;;;;;;5041348;28;19925;-72
2022/10/22 11:46:56;;;;;;;;;;;15.90;99.90;;;;;;5063262;28;19952;-72
2022/10/22 11:49:23;;;;;;;;;;;16.20;99.90;;;;;;5062303;28;19917;-73
2022/10/22 11:51:49;;;;;;;;;;;17.10;99.90;;;;;;5062833;28;20378;-73
2022/10/22 11:54:29;;;;;;;;;;;16.10;99.90;;;;;;5071587;28;19916;-72
2022/10/22 11:57:15;;;;;;;;;;;16.00;99.90;;;;;;5061710;28;19916;-72
2022/10/22 11:59:43;;;;;;;;;;;16.20;99.90;;;;;;5049629;28;19923;-72
2022/10/22 12:02:27;;;;;;;;;;;16.00;99.90;;;;;;5042845;28;19921;-72
2022/10/22 12:05:32;;;;;;;;;;;16.30;99.90;;;;;;5035027;28;20011;-72
2022/10/22 12:08:16;;;;;;;;;;;16.00;99.90;;;;;;4997967;28;19971;-72
2022/10/22 12:10:47;;;;;;;;;;;16.30;99.90;;;;;;4976516;28;19918;-72
2022/10/22 12:13:20;;;;;;;;;;;16.20;99.90;;;;;;5016233;28;19966;-72
2022/10/22 12:15:47;;;;;;;;;;;16.00;99.90;;;;;;5057434;28;19951;-72
2022/10/22 12:18:13;;;;;;;;;;;16.30;99.90;;;;;;5059891;28;19916;-72
2022/10/22 12:20:39;;;;;;;;;;;16.80;99.90;;;;;;5055721;28;20393;-72
2022/10/22 12:23:05;;;;;;;;;;;16.30;99.90;;;;;;5031802;28;19916;-71
2022/10/22 12:25:31;;;;;;;;;;;16.70;99.90;;;;;;5070965;28;19924;-71
2022/10/22 12:27:57;;;;;;;;;;;16.30;99.90;;;;;;5050025;28;19935;-72
2022/10/22 12:30:24;;;;;;;;;;;17.40;99.90;;;;;;5052111;28;19917;-72
2022/10/22 12:32:51;;;;;;;;;;;18.10;99.90;;;;;;5045010;28;20713;-72
2022/10/22 12:35:18;;;;;;;;;;;16.70;99.90;;;;;;5054188;28;20007;-71
2022/10/22 12:37:44;;;;;;;;;;;16.40;99.90;;;;;;5053781;28;19916;-71
2022/10/22 12:40:19;;;;;;;;;;;16.50;99.90;;;;;;5054668;28;19978;-71
2022/10/22 12:42:46;;;;;;;;;;;16.70;99.90;;;;;;5059727;28;19920;-72
2022/10/22 12:45:12;;;;;;;;;;;17.80;99.90;;;;;;5055828;28;19962;-72
2022/10/22 12:47:37;;;;;;;;;;;16.70;99.90;;;;;;5034528;28;19936;-71
2022/10/22 12:50:03;;;;;;;;;;;18.10;99.90;;;;;;5041407;28;20015;-72
2022/10/22 12:52:29;;;;;;;;;;;16.80;99.90;;;;;;5044369;28;19943;-69
2022/10/22 12:54:55;;;;;;;;;;;16.90;99.90;;;;;;5041494;28;19916;-71
2022/10/22 12:57:20;;;;;;;;;;;16.90;99.90;;;;;;5022254;28;19926;-71
2022/10/22 12:59:48;;;;;;;;;;;16.70;99.90;;;;;;5052172;28;19916;-72
2022/10/22 13:02:21;;;;;;;;;;;17.10;99.90;;;;;;5052151;28;19920;-72
2022/10/22 13:05:03;;;;;;;;;;;16.70;99.90;;;;;;5051573;28;19916;-72
2022/10/22 13:07:36;;;;;;;;;;;16.60;99.90;;;;;;5047153;28;19961;-71
2022/10/22 13:10:15;;;;;;;;;;;17.90;99.90;;;;;;5037652;28;19924;-71
2022/10/22 13:12:43;;;;;;;;;;;16.80;99.90;;;;;;5060001;28;19995;-71
2022/10/22 13:15:34;;;;;;;;;;;17.80;99.90;;;;;;5050093;28;20267;-71
2022/10/22 13:18:32;;;;;;;;;;;16.80;99.90;;;;;;5051926;28;20284;-72
2022/10/22 13:21:00;;;;;;;;;;;17.00;99.90;;;;;;5006200;28;19921;-71
2022/10/22 13:23:27;;;;;;;;;;;16.80;99.90;;;;;;5054060;28;20398;-72
2022/10/22 13:25:57;;;;;;;;;;;17.00;99.90;;;;;;5053014;28;20343;-72
2022/10/22 13:28:23;;;;;;;;;;;16.80;99.90;;;;;;5051851;28;20279;-72
2022/10/22 13:30:57;;;;;;;;;;;18.20;99.90;;;;;;5053904;28;19917;-72
2022/10/22 13:33:28;;;;;;;;;;;16.80;99.90;;;;;;5032411;28;20386;-72
2022/10/22 13:35:55;;;;;;;;;;;16.50;99.90;;;;;;5027033;28;19921;-72
2022/10/22 13:38:22;;;;;;;;;;;17.70;99.90;;;;;;5060036;28;19932;-72
2022/10/22 13:40:48;;;;;;;;;;;16.60;99.90;;;;;;5057437;28;20386;-73
2022/10/22 13:43:14;;;;;;;;;;;16.70;99.90;;;;;;5052303;28;19966;-72
2022/10/22 13:45:40;;;;;;;;;;;17.70;99.90;;;;;;5046060;28;20386;-71
2022/10/22 13:48:09;;;;;;;;;;;16.70;99.90;;;;;;5053525;28;19955;-71
2022/10/22 13:50:35;;;;;;;;;;;16.90;99.90;;;;;;5069221;28;19916;-71
2022/10/22 13:53:00;;;;;;;;;;;17.00;99.90;;;;;;5063816;28;20339;-71
2022/10/22 13:55:27;;;;;;;;;;;17.10;99.90;;;;;;5021964;28;19925;-71
2022/10/22 13:57:55;;;;;;;;;;;17.60;99.90;;;;;;5046053;28;19928;-72
2022/10/22 14:00:21;;;;;;;;;;;18.10;99.90;;;;;;5019825;28;20411;-73
2022/10/22 14:02:48;;;;;;;;;;;18.20;99.90;;;;;;5047545;28;20052;-74
2022/10/22 14:05:15;;;;;;;;;;;18.20;99.90;;;;;;5041795;28;20410;-74
2022/10/22 14:07:40;;;;;;;;;;;17.00;99.90;;;;;;5027930;28;19920;-74
2022/10/22 14:10:22;;;;;;;;;;;17.80;99.90;;;;;;5061136;28;20314;-74
2022/10/22 14:12:48;;;;;;;;;;;16.90;99.90;;;;;;5054516;28;19916;-74
2022/10/22 14:15:15;;;;;;;;;;;16.80;99.90;;;;;;5053999;28;20373;-74
2022/10/22 14:17:42;;;;;;;;;;;16.70;99.90;;;;;;5051071;28;19998;-72
2022/10/22 14:20:12;;;;;;;;;;;16.60;99.90;;;;;;5038547;28;19939;-73
2022/10/22 14:22:38;;;;;;;;;;;16.80;99.90;;;;;;5032117;28;19979;-73
2022/10/22 14:25:03;;;;;;;;;;;16.80;99.90;;;;;;5037247;28;20332;-73